Main page
METAR-TAF:

METAR-TAF

Airports :

Huesca, Spain

Huesca–Pirineos Airport

latitude: 42-04-32N, longitude: 0-18-58W, elevation: 539 m

Current weather observation

The report was made 20 minutes ago, at 11:30 UTC
Wind 1 kt from variable directions
Temperature 12°C
Humidity 54%
Pressure 1024 hPa
Visibility 10 km or more
no clouds below 1500 m and no cumulonimbus

METAR: LEHC 201130Z VRB01KT CAVOK 12/03 Q1024

Time: 12:50 (11:50 UTC)

Forecast

The report was made 3 hours and 50 minutes ago, at 08:00 UTC
Forecast valid from 20 at 09 UTC to 21 at 09 UTC
Wind 4 kt from variable directions
Visibility 10 km or more
no clouds below 1500 m and no cumulonimbus

TAF: LEHC 200800Z 2009/2109 VRB04KT CAVOK TX15/2013Z TN02/2106Z

Weather observations and forecasts of more than 4000 airports (METAR and TAF reports).

The available stations are represented by yellow and red dots on the map.

Hover mouse over dot to see the name of the station.

Then click to see weather observations and forecasts.

To change the map : click on the green buttons with a black cross to zoom in, on the green button with a dash to zoom out, or on the green arrows for adjacent maps.


METAR-TAF: